createdAt,value
2018-01-24T00:00:52.091Z,100707.50
2018-01-24T00:03:19.614Z,100705.32
2018-01-24T00:05:47.130Z,100701.97
2018-01-24T00:08:14.759Z,100702.05
2018-01-24T00:10:42.246Z,100701.58
2018-01-24T00:13:09.810Z,100699.43
2018-01-24T00:15:37.323Z,100701.48
2018-01-24T00:18:04.930Z,100700.70
2018-01-24T00:20:32.625Z,100699.47
2018-01-24T00:23:00.199Z,100704.50
2018-01-24T00:25:27.651Z,100703.35
2018-01-24T00:27:55.150Z,100704.63
2018-01-24T00:30:22.795Z,100703.76
2018-01-24T00:32:50.292Z,100707.09
2018-01-24T00:35:17.758Z,100702.80
2018-01-24T00:37:45.226Z,100702.73
2018-01-24T00:40:12.704Z,100704.80
2018-01-24T00:42:40.227Z,100702.33
2018-01-24T00:45:07.714Z,100699.84
2018-01-24T00:47:35.176Z,100700.63
2018-01-24T00:50:02.679Z,100696.30
2018-01-24T00:52:30.192Z,100700.92
2018-01-24T00:54:57.671Z,100692.94
2018-01-24T00:57:25.158Z,100700.26
2018-01-24T00:59:52.642Z,100695.38
2018-01-24T01:02:20.110Z,100705.06
2018-01-24T01:04:47.620Z,100701.17
2018-01-24T01:07:15.094Z,100705.43
2018-01-24T01:09:42.733Z,100706.17
2018-01-24T01:12:10.218Z,100706.17
2018-01-24T01:14:37.832Z,100709.62
2018-01-24T01:17:05.320Z,100702.44
2018-01-24T01:19:32.783Z,100705.50
2018-01-24T01:22:00.239Z,100709.83
2018-01-24T01:24:27.842Z,100709.97
2018-01-24T01:26:55.296Z,100708.68
2018-01-24T01:29:22.738Z,100706.38
2018-01-24T01:31:50.246Z,100695.00
2018-01-24T01:34:17.738Z,100698.73
2018-01-24T01:36:45.389Z,100693.61
2018-01-24T01:39:12.858Z,100699.16
2018-01-24T01:41:40.331Z,100695.98
2018-01-24T01:44:07.903Z,100699.58
2018-01-24T01:46:35.392Z,100705.50
2018-01-24T01:49:02.863Z,100699.11
2018-01-24T01:51:30.410Z,100692.33
2018-01-24T01:53:58.210Z,100684.30
2018-01-24T01:56:25.668Z,100692.69
2018-01-24T01:58:53.123Z,100694.82
2018-01-24T02:01:20.586Z,100684.16
2018-01-24T02:03:48.096Z,100690.17
2018-01-24T02:06:15.566Z,100687.20
2018-01-24T02:08:43.019Z,100681.19
2018-01-24T02:11:10.601Z,100687.53
2018-01-24T02:13:38.078Z,100691.84
2018-01-24T02:16:05.533Z,100687.20
2018-01-24T02:18:38.904Z,100688.49
2018-01-24T02:21:06.383Z,100685.05
2018-01-24T02:23:33.922Z,100687.58
2018-01-24T02:26:01.404Z,100688.47
2018-01-24T02:28:29.091Z,100688.81
2018-01-24T02:30:56.567Z,100688.45
2018-01-24T02:33:24.231Z,100684.16
2018-01-24T02:35:51.683Z,100685.00
2018-01-24T02:38:30.127Z,100696.91
2018-01-24T02:40:57.637Z,100693.95
2018-01-24T02:43:25.074Z,100683.33
2018-01-24T02:45:52.549Z,100686.33
2018-01-24T02:48:20.029Z,100688.09
2018-01-24T02:50:47.494Z,100684.18
2018-01-24T02:53:15.062Z,100691.42
2018-01-24T02:55:42.528Z,100685.43
2018-01-24T02:58:10.002Z,100681.30
2018-01-24T03:00:37.588Z,100688.47
2018-01-24T03:03:05.130Z,100685.86
2018-01-24T03:05:32.598Z,100683.69
2018-01-24T03:08:00.050Z,100688.34
2018-01-24T03:10:27.517Z,100695.41
2018-01-24T03:12:54.988Z,100689.65
2018-01-24T03:15:22.471Z,100691.06
2018-01-24T03:17:49.947Z,100687.44
2018-01-24T03:20:17.557Z,100688.64
2018-01-24T03:22:45.043Z,100686.05
2018-01-24T03:25:12.605Z,100685.60
2018-01-24T03:27:40.064Z,100676.23
2018-01-24T03:30:07.519Z,100672.00
2018-01-24T03:32:34.974Z,100672.69
2018-01-24T03:35:02.426Z,100679.44
2018-01-24T03:37:29.901Z,100673.00
2018-01-24T03:39:57.388Z,100672.48
2018-01-24T03:42:25.032Z,100677.95
2018-01-24T03:44:52.506Z,100666.45
2018-01-24T03:47:20.004Z,100663.05
2018-01-24T03:49:47.447Z,100674.86
2018-01-24T03:52:15.069Z,100669.80
2018-01-24T03:54:42.767Z,100670.20
2018-01-24T03:57:10.218Z,100663.48
2018-01-24T03:59:37.920Z,100662.47
2018-01-24T04:02:05.379Z,100660.31
2018-01-24T04:04:32.859Z,100664.12
2018-01-24T04:07:00.314Z,100660.28
2018-01-24T04:09:27.818Z,100656.50
2018-01-24T04:11:55.359Z,100661.25
2018-01-24T04:14:22.818Z,100654.55
2018-01-24T04:16:50.289Z,100656.95
2018-01-24T04:19:17.765Z,100654.80
2018-01-24T04:21:45.257Z,100657.30
2018-01-24T04:24:12.701Z,100649.03
2018-01-24T04:26:40.187Z,100651.07
2018-01-24T04:29:07.655Z,100656.81
2018-01-24T04:31:35.113Z,100659.83
2018-01-24T04:34:02.596Z,100658.48
2018-01-24T04:36:30.068Z,100662.49
2018-01-24T04:38:57.526Z,100672.88
2018-01-24T04:41:25.011Z,100672.34
2018-01-24T04:43:52.480Z,100676.14
2018-01-24T04:46:19.953Z,100682.41
2018-01-24T04:48:47.446Z,100678.61
2018-01-24T04:51:15.150Z,100681.12
2018-01-24T04:53:42.651Z,100679.38
2018-01-24T04:56:10.115Z,100684.44
2018-01-24T04:58:37.675Z,100680.28
2018-01-24T05:01:05.142Z,100683.61
2018-01-24T05:03:32.589Z,100676.50
2018-01-24T05:06:00.914Z,100676.95
2018-01-24T05:08:28.626Z,100673.50
2018-01-24T05:10:56.081Z,100668.33
2018-01-24T05:13:23.579Z,100667.50
2018-01-24T05:15:51.062Z,100660.41
2018-01-24T05:18:18.526Z,100664.00
2018-01-24T05:20:45.975Z,100661.71
2018-01-24T05:23:13.442Z,100674.77
2018-01-24T05:25:40.899Z,100674.80
2018-01-24T05:28:08.379Z,100673.56
2018-01-24T05:30:36.362Z,100668.41
2018-01-24T05:33:03.853Z,100671.86
2018-01-24T05:35:32.174Z,100674.65
2018-01-24T05:37:59.706Z,100667.31
2018-01-24T05:40:27.167Z,100678.59
2018-01-24T05:42:54.630Z,100676.14
2018-01-24T05:45:22.109Z,100679.95
2018-01-24T05:47:49.572Z,100683.31
2018-01-24T05:50:17.046Z,100674.58
2018-01-24T05:52:44.516Z,100679.65
2018-01-24T05:55:11.961Z,100684.23
2018-01-24T05:57:39.438Z,100686.02
2018-01-24T06:00:06.933Z,100678.88
2018-01-24T06:02:35.727Z,100680.13
2018-01-24T06:05:03.184Z,100684.42
2018-01-24T06:07:30.663Z,100680.98
2018-01-24T06:09:58.146Z,100679.02
2018-01-24T06:12:25.750Z,100692.97
2018-01-24T06:14:53.222Z,100687.81
2018-01-24T06:17:20.749Z,100684.63
2018-01-24T06:19:48.215Z,100680.89
2018-01-24T06:22:15.787Z,100677.52
2018-01-24T06:24:43.437Z,100686.30
2018-01-24T06:27:10.878Z,100693.15
2018-01-24T06:29:38.711Z,100687.48
2018-01-24T06:32:06.204Z,100681.03
2018-01-24T06:34:33.728Z,100697.87
2018-01-24T06:37:01.186Z,100701.19
2018-01-24T06:39:28.675Z,100707.23
2018-01-24T06:41:56.153Z,100711.56
2018-01-24T06:44:23.603Z,100707.44
2018-01-24T06:46:51.089Z,100708.72
2018-01-24T06:49:18.577Z,100701.37
2018-01-24T06:51:46.033Z,100697.55
2018-01-24T06:54:13.535Z,100697.06
2018-01-24T06:56:40.995Z,100696.47
2018-01-24T06:59:08.524Z,100703.44
2018-01-24T07:01:36.029Z,100698.82
2018-01-24T07:04:03.800Z,100696.55
2018-01-24T07:06:31.427Z,100700.34
2018-01-24T07:08:58.903Z,100701.98
2018-01-24T07:11:26.360Z,100697.17
2018-01-24T07:14:05.574Z,100696.83
2018-01-24T07:16:33.063Z,100703.78
2018-01-24T07:19:00.519Z,100714.73
2018-01-24T07:21:28.054Z,100711.31
2018-01-24T07:23:55.511Z,100714.25
2018-01-24T07:26:23.010Z,100719.00
2018-01-24T07:28:50.489Z,100729.91
2018-01-24T07:31:17.956Z,100723.75
2018-01-24T07:33:45.424Z,100720.42
2018-01-24T07:36:12.899Z,100718.39
2018-01-24T07:38:40.391Z,100711.97
2018-01-24T07:41:07.924Z,100717.09
2018-01-24T07:43:35.420Z,100722.02
2018-01-24T07:46:02.886Z,100721.08
2018-01-24T07:48:30.348Z,100721.89
2018-01-24T07:50:57.861Z,100715.12
2018-01-24T07:53:25.336Z,100723.67
2018-01-24T07:55:52.795Z,100728.77
2018-01-24T07:58:20.253Z,100737.65
2018-01-24T08:00:47.824Z,100738.84
2018-01-24T08:03:15.399Z,100735.55
2018-01-24T08:05:42.862Z,100744.48
2018-01-24T08:08:10.322Z,100739.00
2018-01-24T08:10:37.794Z,100740.62
2018-01-24T08:13:05.260Z,100736.45
2018-01-24T08:15:32.736Z,100726.79
2018-01-24T08:18:00.198Z,100732.83
2018-01-24T08:20:27.754Z,100727.98
2018-01-24T08:22:55.217Z,100731.03
2018-01-24T08:25:22.688Z,100723.27
2018-01-24T08:27:50.164Z,100732.58
2018-01-24T08:30:17.639Z,100720.86
2018-01-24T08:32:45.099Z,100716.52
2018-01-24T08:35:12.546Z,100718.15
2018-01-24T08:37:40.008Z,100716.84
2018-01-24T08:40:07.491Z,100719.38
2018-01-24T08:42:34.943Z,100713.93
2018-01-24T08:45:02.411Z,100721.55
2018-01-24T08:47:29.945Z,100723.41
2018-01-24T08:49:57.400Z,100717.77
2018-01-24T08:52:24.882Z,100718.59
2018-01-24T08:54:52.362Z,100722.17
2018-01-24T08:57:19.830Z,100721.47
2018-01-24T08:59:47.279Z,100719.36
2018-01-24T09:02:17.358Z,100725.55
2018-01-24T09:05:02.288Z,100727.81
2018-01-24T09:07:47.161Z,100730.08
2018-01-24T09:10:32.180Z,100735.51
2018-01-24T09:13:17.161Z,100738.37
2018-01-24T09:16:02.038Z,100750.67
2018-01-24T09:18:46.835Z,100757.36
2018-01-24T09:21:31.716Z,100755.34
2018-01-24T09:24:05.371Z,100756.61
2018-01-24T09:26:33.062Z,100758.02
2018-01-24T09:29:00.573Z,100759.96
2018-01-24T09:31:28.086Z,100760.58
2018-01-24T09:33:55.560Z,100772.73
2018-01-24T09:36:23.083Z,100760.49
2018-01-24T09:38:50.603Z,100760.59
2018-01-24T09:41:18.076Z,100759.57
2018-01-24T09:43:45.620Z,100770.11
2018-01-24T09:46:13.213Z,100759.73
2018-01-24T09:48:43.116Z,100757.75
2018-01-24T09:51:10.605Z,100758.48
2018-01-24T09:53:38.092Z,100758.13
2018-01-24T09:56:05.570Z,100762.26
2018-01-24T09:58:33.397Z,100764.12
2018-01-24T10:01:00.890Z,100770.42
2018-01-24T10:03:28.407Z,100757.48
2018-01-24T10:05:55.878Z,100759.02
2018-01-24T10:08:23.341Z,100764.55
2018-01-24T10:10:50.804Z,100756.30
2018-01-24T10:13:18.292Z,100772.69
2018-01-24T10:15:45.814Z,100778.98
2018-01-24T10:18:13.341Z,100786.63
2018-01-24T10:20:40.822Z,100785.77
2018-01-24T10:23:08.323Z,100788.58
2018-01-24T10:25:35.791Z,100792.13
2018-01-24T10:28:03.327Z,100779.11
2018-01-24T10:30:30.798Z,100774.92
2018-01-24T10:32:58.293Z,100771.22
2018-01-24T10:35:25.763Z,100770.17
2018-01-24T10:37:53.295Z,100766.38
2018-01-24T10:40:20.782Z,100764.18
2018-01-24T10:42:48.271Z,100765.92
2018-01-24T10:45:16.030Z,100754.29
2018-01-24T10:47:43.529Z,100748.34
2018-01-24T10:50:11.009Z,100741.22
2018-01-24T10:52:38.529Z,100744.23
2018-01-24T10:55:05.995Z,100743.39
2018-01-24T10:57:33.484Z,100748.87
2018-01-24T11:00:01.007Z,100750.15
2018-01-24T11:02:28.505Z,100747.91
2018-01-24T11:04:56.001Z,100750.02
2018-01-24T11:07:24.342Z,100747.03
2018-01-24T11:09:51.835Z,100752.09
2018-01-24T11:12:19.311Z,100741.84
2018-01-24T11:14:46.781Z,100738.17
2018-01-24T11:17:14.275Z,100744.05
2018-01-24T11:19:41.804Z,100721.23
2018-01-24T11:22:09.264Z,100720.92
2018-01-24T11:24:37.089Z,100718.87
2018-01-24T11:27:04.577Z,100711.81
2018-01-24T11:29:32.075Z,100721.19
2018-01-24T11:31:59.689Z,100719.58
2018-01-24T11:34:27.154Z,100719.73
2018-01-24T11:36:54.635Z,100704.11
2018-01-24T11:39:22.148Z,100703.91
2018-01-24T11:41:49.646Z,100705.38
2018-01-24T11:44:17.215Z,100698.08
2018-01-24T11:46:44.724Z,100698.65
2018-01-24T11:49:12.179Z,100700.02
2018-01-24T11:51:41.054Z,100691.17
2018-01-24T11:54:08.850Z,100696.71
2018-01-24T11:56:36.453Z,100684.04
2018-01-24T11:59:04.122Z,100685.73
2018-01-24T12:01:31.656Z,100679.03
2018-01-24T12:03:59.252Z,100675.98
2018-01-24T12:06:27.777Z,100667.48
2018-01-24T12:08:55.394Z,100663.70
2018-01-24T12:11:23.015Z,100656.08
2018-01-24T12:13:50.544Z,100659.52
2018-01-24T12:16:18.981Z,100660.39
2018-01-24T12:18:46.654Z,100649.75
2018-01-24T12:21:14.370Z,100642.03
2018-01-24T12:23:41.913Z,100659.55
2018-01-24T12:26:09.806Z,100648.41
2018-01-24T12:28:37.303Z,100643.27
2018-01-24T12:31:04.770Z,100655.92
2018-01-24T12:33:32.263Z,100644.86
2018-01-24T12:35:59.750Z,100637.59
2018-01-24T12:38:27.497Z,100636.67
2018-01-24T12:40:55.003Z,100652.39
2018-01-24T12:43:22.495Z,100646.06
2018-01-24T12:45:49.966Z,100640.84
2018-01-24T12:48:17.441Z,100646.34
2018-01-24T12:50:44.894Z,100648.36
2018-01-24T12:53:12.377Z,100641.92
2018-01-24T12:55:39.837Z,100642.25
2018-01-24T12:58:07.292Z,100641.72
2018-01-24T13:00:34.759Z,100631.59
2018-01-24T13:03:02.208Z,100619.87
2018-01-24T13:05:29.690Z,100624.65
2018-01-24T13:07:57.188Z,100614.05
2018-01-24T13:10:24.607Z,100601.00
2018-01-24T13:12:52.086Z,100594.80
2018-01-24T13:15:19.554Z,100595.35
2018-01-24T13:17:47.024Z,100588.28
2018-01-24T13:20:15.503Z,100596.00
2018-01-24T13:22:43.021Z,100590.00
2018-01-24T13:25:10.519Z,100592.86
2018-01-24T13:27:37.983Z,100598.84
2018-01-24T13:30:05.465Z,100602.77
2018-01-24T13:32:33.292Z,100604.66
2018-01-24T13:35:00.783Z,100602.70
2018-01-24T13:37:28.254Z,100599.80
2018-01-24T13:39:55.738Z,100594.64
2018-01-24T13:42:23.480Z,100597.61
2018-01-24T13:44:51.076Z,100600.13
2018-01-24T13:47:18.703Z,100602.59
2018-01-24T13:49:46.275Z,100601.66
2018-01-24T13:52:13.983Z,100603.32
2018-01-24T13:54:41.693Z,100596.45
2018-01-24T13:57:09.167Z,100593.98
2018-01-24T13:59:36.696Z,100591.02
2018-01-24T14:02:04.231Z,100584.74
2018-01-24T14:04:31.791Z,100580.42
2018-01-24T14:06:59.255Z,100574.09
2018-01-24T14:09:26.735Z,100573.16
2018-01-24T14:11:54.268Z,100574.52
2018-01-24T14:14:21.738Z,100575.95
2018-01-24T14:16:49.205Z,100575.54
2018-01-24T14:19:16.666Z,100578.03
2018-01-24T14:21:44.126Z,100570.34
2018-01-24T14:24:11.649Z,100569.91
2018-01-24T14:26:39.204Z,100573.83
2018-01-24T14:29:06.680Z,100577.34
2018-01-24T14:31:34.158Z,100578.69
2018-01-24T14:34:01.717Z,100576.18
2018-01-24T14:36:29.217Z,100572.77
2018-01-24T14:38:56.705Z,100577.05
2018-01-24T14:41:24.188Z,100582.14
2018-01-24T14:43:51.730Z,100582.59
2018-01-24T14:46:19.200Z,100582.58
2018-01-24T14:48:46.719Z,100583.45
2018-01-24T14:51:16.578Z,100588.12
2018-01-24T14:53:44.095Z,100581.27
2018-01-24T14:58:48.929Z,100573.61
2018-01-24T15:01:19.438Z,100576.16
2018-01-24T15:03:50.185Z,100573.58
2018-01-24T15:06:20.759Z,100565.80
2018-01-24T15:09:04.390Z,100564.45
2018-01-24T15:14:55.249Z,100564.37
2018-01-24T15:17:24.996Z,100566.88
2018-01-24T15:19:52.587Z,100568.11
2018-01-24T15:22:22.426Z,100567.56
2018-01-24T15:24:50.415Z,100559.66
2018-01-24T15:27:21.208Z,100564.81
2018-01-24T15:29:49.116Z,100564.84
2018-01-24T15:32:16.735Z,100568.36
2018-01-24T15:34:44.198Z,100565.03
2018-01-24T15:37:11.690Z,100563.39
2018-01-24T15:39:39.169Z,100566.91
2018-01-24T15:42:06.650Z,100563.25
2018-01-24T15:44:34.360Z,100559.14
2018-01-24T15:47:01.879Z,100566.84
2018-01-24T15:49:35.436Z,100557.62
2018-01-24T15:52:04.859Z,100556.49
2018-01-24T15:54:32.854Z,100557.58
2018-01-24T15:57:00.447Z,100561.06
2018-01-24T15:59:30.082Z,100554.58
2018-01-24T16:01:57.579Z,100558.89
2018-01-24T16:04:27.236Z,100560.41
2018-01-24T16:06:54.825Z,100560.64
2018-01-24T16:09:22.771Z,100559.15
2018-01-24T16:11:50.541Z,100553.44
2018-01-24T16:14:18.708Z,100552.27
2018-01-24T16:16:46.979Z,100552.53
2018-01-24T16:19:14.467Z,100550.69
2018-01-24T16:21:43.603Z,100554.16
2018-01-24T16:24:12.967Z,100556.38
2018-01-24T16:26:40.542Z,100554.18
2018-01-24T16:29:08.039Z,100555.28
2018-01-24T16:31:35.589Z,100556.45
2018-01-24T16:34:03.072Z,100562.20
2018-01-24T16:36:30.564Z,100562.08
2018-01-24T16:38:58.905Z,100562.00
2018-01-24T16:41:29.642Z,100562.96
2018-01-24T16:43:57.347Z,100559.21
2018-01-24T16:46:26.981Z,100556.09
2018-01-24T16:48:54.619Z,100551.24
2018-01-24T16:51:22.158Z,100557.88
2018-01-24T16:53:49.677Z,100562.67
2018-01-24T16:56:17.237Z,100561.59
2018-01-24T16:58:44.865Z,100558.84
2018-01-24T17:01:12.372Z,100557.92
2018-01-24T17:03:39.847Z,100554.44
2018-01-24T17:06:08.361Z,100550.45
2018-01-24T17:08:35.912Z,100544.23
2018-01-24T17:11:03.356Z,100542.83
2018-01-24T17:13:30.825Z,100551.59
2018-01-24T17:15:58.355Z,100551.67
2018-01-24T17:18:26.086Z,100553.63
2018-01-24T17:20:53.556Z,100538.42
2018-01-24T17:23:21.033Z,100543.16
2018-01-24T17:25:48.545Z,100537.96
2018-01-24T17:28:17.102Z,100532.55
2018-01-24T17:30:45.271Z,100532.91
2018-01-24T17:33:12.774Z,100531.95
2018-01-24T17:35:41.919Z,100532.96
2018-01-24T17:38:09.407Z,100537.82
2018-01-24T17:40:36.960Z,100540.78
2018-01-24T17:43:05.369Z,100533.34
2018-01-24T17:45:33.633Z,100535.11
2018-01-24T17:48:01.355Z,100540.92
2018-01-24T17:50:28.940Z,100539.84
2018-01-24T17:52:57.285Z,100538.64
2018-01-24T17:55:25.261Z,100535.91
2018-01-24T17:57:52.733Z,100531.77
2018-01-24T18:00:20.292Z,100524.09
2018-01-24T18:02:47.818Z,100524.92
2018-01-24T18:05:15.393Z,100520.88
2018-01-24T18:07:42.877Z,100525.77
2018-01-24T18:10:10.416Z,100518.13
2018-01-24T18:12:37.896Z,100517.43
2018-01-24T18:15:05.459Z,100509.88
2018-01-24T18:17:32.997Z,100509.63
2018-01-24T18:20:00.575Z,100502.94
2018-01-24T18:22:28.410Z,100496.44
2018-01-24T18:24:55.983Z,100495.94
2018-01-24T18:27:23.485Z,100492.70
2018-01-24T18:29:51.028Z,100484.71
2018-01-24T18:32:21.481Z,100480.02
2018-01-24T18:34:48.960Z,100468.63
2018-01-24T18:37:16.475Z,100464.70
2018-01-24T18:39:44.079Z,100467.86
2018-01-24T18:42:11.587Z,100466.63
2018-01-24T18:44:39.056Z,100456.91
2018-01-24T18:47:06.535Z,100454.91
2018-01-24T18:49:34.028Z,100453.05
2018-01-24T18:52:01.505Z,100459.19
2018-01-24T18:54:29.781Z,100456.17
2018-01-24T18:56:57.294Z,100451.69
2018-01-24T18:59:24.752Z,100445.17
2018-01-24T19:01:52.457Z,100451.36
2018-01-24T19:04:20.032Z,100448.74
2018-01-24T19:06:47.559Z,100452.59
2018-01-24T19:09:16.315Z,100450.58
2018-01-24T19:11:43.924Z,100446.78
2018-01-24T19:14:11.478Z,100444.17
2018-01-24T19:16:38.892Z,100439.97
2018-01-24T19:19:06.366Z,100443.31
2018-01-24T19:21:33.846Z,100432.90
2018-01-24T19:24:01.322Z,100431.95
2018-01-24T19:26:28.868Z,100423.90
2018-01-24T19:28:56.343Z,100420.19
2018-01-24T19:31:23.860Z,100414.62
2018-01-24T19:33:51.335Z,100414.88
2018-01-24T19:36:18.807Z,100407.28
2018-01-24T19:38:46.325Z,100413.25
2018-01-24T19:41:14.954Z,100411.95
2018-01-24T19:43:42.540Z,100403.11
2018-01-24T19:46:10.039Z,100397.36
2018-01-24T19:48:37.530Z,100387.94
2018-01-24T19:51:05.133Z,100376.21
2018-01-24T19:53:32.626Z,100366.52
2018-01-24T19:56:00.159Z,100362.00
2018-01-24T19:58:27.696Z,100356.19
2018-01-24T20:00:55.171Z,100365.98
2018-01-24T20:03:22.634Z,100361.63
2018-01-24T20:05:50.107Z,100354.27
2018-01-24T20:08:17.846Z,100358.22
2018-01-24T20:10:45.342Z,100354.33
2018-01-24T20:13:12.826Z,100355.06
2018-01-24T20:15:40.303Z,100351.27
2018-01-24T20:18:07.824Z,100343.37
2018-01-24T20:20:35.319Z,100338.71
2018-01-24T20:23:02.852Z,100335.87
2018-01-24T20:25:30.344Z,100336.13
2018-01-24T20:27:57.828Z,100329.75
2018-01-24T20:30:26.582Z,100329.33
2018-01-24T20:32:54.063Z,100329.70
2018-01-24T20:35:21.549Z,100329.66
2018-01-24T20:37:49.040Z,100324.90
2018-01-24T20:40:17.384Z,100321.96
2018-01-24T20:42:44.849Z,100310.42
2018-01-24T20:45:13.388Z,100306.13
2018-01-24T20:47:40.919Z,100298.80
2018-01-24T20:50:08.389Z,100300.06
2018-01-24T20:52:35.916Z,100299.59
2018-01-24T20:55:03.435Z,100303.99
2018-01-24T20:57:30.898Z,100288.00
2018-01-24T20:59:58.388Z,100283.91
2018-01-24T21:02:25.933Z,100275.02
2018-01-24T21:04:54.039Z,100271.33
2018-01-24T21:07:23.386Z,100272.67
2018-01-24T21:09:51.993Z,100274.52
2018-01-24T21:12:19.545Z,100271.94
2018-01-24T21:14:49.280Z,100266.34
2018-01-24T21:17:17.090Z,100266.61
2018-01-24T21:19:47.210Z,100267.86
2018-01-24T21:22:16.876Z,100261.00
2018-01-24T21:24:47.432Z,100266.06
2018-01-24T21:27:19.383Z,100265.65
2018-01-24T21:30:00.790Z,100258.41
2018-01-24T21:32:41.392Z,100254.14
2018-01-24T21:38:21.353Z,100254.57
2018-01-24T21:40:54.422Z,100257.75
2018-01-24T21:43:22.711Z,100247.15
2018-01-24T21:45:57.251Z,100247.91
2018-01-24T21:48:27.560Z,100235.59
2018-01-24T21:53:58.971Z,100248.59
2018-01-24T21:56:26.668Z,100237.52
2018-01-24T21:58:54.297Z,100232.03
2018-01-24T22:01:21.821Z,100229.02
2018-01-24T22:03:49.366Z,100225.27
2018-01-24T22:06:16.914Z,100225.55
2018-01-24T22:08:44.492Z,100231.30
2018-01-24T22:11:12.031Z,100225.27
2018-01-24T22:13:39.522Z,100219.98
2018-01-24T22:16:07.716Z,100220.17
2018-01-24T22:18:35.507Z,100216.72
2018-01-24T22:21:03.038Z,100225.65
2018-01-24T22:23:31.180Z,100219.73
2018-01-24T22:25:58.985Z,100224.04
2018-01-24T22:28:26.659Z,100218.81
2018-01-24T22:30:54.883Z,100218.67
2018-01-24T22:33:22.495Z,100222.38
2018-01-24T22:35:50.300Z,100223.52
2018-01-24T22:38:17.792Z,100214.80
2018-01-24T22:40:46.471Z,100213.63
2018-01-24T22:43:14.199Z,100206.61
2018-01-24T22:45:41.791Z,100209.55
2018-01-24T22:48:09.324Z,100207.02
2018-01-24T22:50:39.604Z,100207.25
2018-01-24T22:53:07.193Z,100202.00
2018-01-24T22:55:34.704Z,100204.98
2018-01-24T22:58:02.484Z,100210.35
2018-01-24T23:00:30.011Z,100207.00
2018-01-24T23:02:57.571Z,100199.64
2018-01-24T23:05:25.080Z,100201.02
2018-01-24T23:07:52.585Z,100205.56
2018-01-24T23:10:20.151Z,100204.78
2018-01-24T23:12:47.636Z,100205.88
2018-01-24T23:15:16.013Z,100195.29
2018-01-24T23:17:43.617Z,100195.77
2018-01-24T23:20:11.103Z,100191.78
2018-01-24T23:22:38.640Z,100187.80
2018-01-24T23:25:06.121Z,100183.00
2018-01-24T23:27:33.646Z,100178.27
2018-01-24T23:30:01.140Z,100186.28
2018-01-24T23:32:30.983Z,100183.98
2018-01-24T23:34:58.478Z,100182.55
2018-01-24T23:37:25.983Z,100175.78
2018-01-24T23:39:53.488Z,100177.66
2018-01-24T23:42:20.964Z,100169.63
2018-01-24T23:44:48.440Z,100172.67
2018-01-24T23:47:15.917Z,100175.31
2018-01-24T23:49:43.507Z,100180.77
2018-01-24T23:52:10.963Z,100187.36
2018-01-24T23:54:38.452Z,100196.42
2018-01-24T23:57:05.974Z,100191.38
2018-01-24T23:59:33.443Z,100193.75
